createdAt,value
2017-11-19T14:01:16.176Z,1013.49
2017-11-19T14:01:16.629Z,1013.51
2017-11-19T14:01:17.655Z,1013.49
2017-11-19T14:01:18.157Z,1013.51
2017-11-19T14:01:18.644Z,1013.53
2017-11-19T14:02:32.593Z,1013.42
2017-11-19T14:02:33.098Z,1013.43
2017-11-19T14:02:33.605Z,1013.45
2017-11-19T14:02:34.101Z,1013.43
2017-11-19T14:02:34.590Z,1013.44
2017-11-19T14:02:35.096Z,1013.43
2017-11-19T14:02:36.098Z,1013.44
2017-11-19T14:02:36.605Z,1013.43
2017-11-19T14:03:31.181Z,1013.49
2017-11-19T14:03:31.681Z,1013.44
2017-11-19T14:03:32.168Z,1013.48
2017-11-19T14:03:33.661Z,1013.47
2017-11-19T14:03:34.676Z,1013.46
2017-11-19T14:04:50.607Z,1013.50
2017-11-19T14:04:51.117Z,1013.43
2017-11-19T14:04:51.617Z,1013.45
2017-11-19T14:04:52.126Z,1013.46
2017-11-19T14:04:52.624Z,1013.46
2017-11-19T14:05:47.188Z,1013.50
2017-11-19T14:05:47.671Z,1013.49
2017-11-19T14:05:48.166Z,1013.47
2017-11-19T14:05:49.169Z,1013.45
2017-11-19T14:05:49.654Z,1013.48
2017-11-19T14:05:50.149Z,1013.48
2017-11-19T14:05:50.622Z,1013.45
2017-11-19T14:05:51.202Z,1013.46
2017-11-19T14:06:45.646Z,1013.48
2017-11-19T14:06:46.147Z,1013.48
2017-11-19T14:06:47.197Z,1013.49
2017-11-19T14:06:47.703Z,1013.50
2017-11-19T14:06:48.209Z,1013.53
2017-11-19T14:06:48.723Z,1013.50
2017-11-19T14:06:49.218Z,1013.46
2017-11-19T14:06:49.725Z,1013.44
2017-11-19T14:07:45.299Z,1013.47
2017-11-19T14:07:46.759Z,1013.47
2017-11-19T14:07:47.278Z,1013.49
2017-11-19T14:07:47.779Z,1013.48
2017-11-19T14:07:48.232Z,1013.48
2017-11-19T14:08:42.803Z,1013.47
2017-11-19T14:08:44.773Z,1013.49
2017-11-19T14:08:45.281Z,1013.47
2017-11-19T14:08:45.785Z,1013.48
2017-11-19T14:08:46.282Z,1013.46
2017-11-19T14:08:46.776Z,1013.46
2017-11-19T14:09:41.344Z,1013.46
2017-11-19T14:09:41.840Z,1013.46
2017-11-19T14:09:42.329Z,1013.46
2017-11-19T14:09:42.841Z,1013.48
2017-11-19T14:09:43.342Z,1013.47
2017-11-19T14:09:44.812Z,1013.48
2017-11-19T14:09:45.355Z,1013.44
2017-11-19T14:10:39.841Z,1013.49
2017-11-19T14:10:40.332Z,1013.52
2017-11-19T14:11:54.149Z,1013.52
2017-11-19T14:11:54.649Z,1013.54
2017-11-19T14:11:55.137Z,1013.55
2017-11-19T14:11:56.135Z,1013.53
2017-11-19T14:11:56.605Z,1013.55
2017-11-19T14:13:10.995Z,1013.51
2017-11-19T14:13:11.501Z,1013.54
2017-11-19T14:13:11.997Z,1013.55
2017-11-19T14:13:12.478Z,1013.57
2017-11-19T14:13:12.982Z,1013.54
2017-11-19T14:13:13.485Z,1013.51
2017-11-19T14:13:13.979Z,1013.54
2017-11-19T14:13:14.478Z,1013.55
2017-11-19T14:13:14.985Z,1013.56
2017-11-19T14:14:09.587Z,1013.57
2017-11-19T14:14:10.069Z,1013.57
2017-11-19T14:14:10.550Z,1013.57
2017-11-19T14:14:11.045Z,1013.59
2017-11-19T14:14:11.548Z,1013.60
2017-11-19T14:14:13.036Z,1013.60
2017-11-19T14:14:13.505Z,1013.58
2017-11-19T14:15:09.069Z,1013.55
2017-11-19T14:15:09.579Z,1013.58
2017-11-19T14:15:10.075Z,1013.55
2017-11-19T14:15:10.590Z,1013.57
2017-11-19T14:15:11.033Z,1013.53
2017-11-19T14:15:11.508Z,1013.55
2017-11-19T14:16:26.445Z,1013.58
2017-11-19T14:16:27.466Z,1013.56
2017-11-19T14:16:27.955Z,1013.57
2017-11-19T14:16:28.474Z,1013.58
2017-11-19T14:17:42.222Z,1013.57
2017-11-19T14:17:43.200Z,1013.55
2017-11-19T14:17:43.232Z,1013.58
2017-11-19T14:17:43.700Z,1013.54
2017-11-19T14:17:43.710Z,1013.57
2017-11-19T14:17:44.219Z,1013.52
2017-11-19T14:17:44.711Z,1013.53
2017-11-19T14:18:58.527Z,1013.65
2017-11-19T14:18:59.007Z,1013.63
2017-11-19T14:18:59.468Z,1013.62
2017-11-19T14:18:59.979Z,1013.64
2017-11-19T14:19:00.468Z,1013.62
2017-11-19T14:19:00.984Z,1013.63
2017-11-19T14:19:01.475Z,1013.65
2017-11-19T14:19:01.998Z,1013.62
2017-11-19T14:19:58.095Z,1013.66
2017-11-19T14:19:58.573Z,1013.66
2017-11-19T14:19:59.073Z,1013.66
2017-11-19T14:19:59.563Z,1013.65
2017-11-19T14:20:00.059Z,1013.71
2017-11-19T14:20:00.560Z,1013.67
2017-11-19T14:20:55.091Z,1013.73
2017-11-19T14:20:55.581Z,1013.72
2017-11-19T14:20:56.042Z,1013.64
2017-11-19T14:20:56.547Z,1013.66
2017-11-19T14:20:57.041Z,1013.64
2017-11-19T14:20:57.550Z,1013.66
2017-11-19T14:20:58.611Z,1013.68
2017-11-19T14:20:59.118Z,1013.66
2017-11-19T14:21:53.630Z,1013.71
2017-11-19T14:21:54.183Z,1013.68
2017-11-19T14:21:54.580Z,1013.68
2017-11-19T14:21:57.648Z,1013.70
2017-11-19T14:22:52.167Z,1013.69
2017-11-19T14:22:52.675Z,1013.71
2017-11-19T14:22:53.177Z,1013.68
2017-11-19T14:22:53.662Z,1013.70
2017-11-19T14:22:54.155Z,1013.70
2017-11-19T14:22:54.661Z,1013.70
2017-11-19T14:22:55.161Z,1013.70
2017-11-19T14:22:55.635Z,1013.68
2017-11-19T14:22:56.117Z,1013.67
2017-11-19T14:23:50.046Z,1013.67
2017-11-19T14:23:50.523Z,1013.71
2017-11-19T14:23:51.027Z,1013.68
2017-11-19T14:23:51.516Z,1013.68
2017-11-19T14:23:52.029Z,1013.72
2017-11-19T14:23:52.523Z,1013.71
2017-11-19T14:23:52.974Z,1013.68
2017-11-19T14:23:53.473Z,1013.69
2017-11-19T14:23:53.964Z,1013.70
2017-11-19T14:24:47.875Z,1013.76
2017-11-19T14:24:48.375Z,1013.73
2017-11-19T14:24:48.866Z,1013.76
2017-11-19T14:24:49.349Z,1013.75
2017-11-19T14:24:50.403Z,1013.75
2017-11-19T14:24:50.923Z,1013.76
2017-11-19T14:24:51.445Z,1013.77
2017-11-19T14:24:51.960Z,1013.76
2017-11-19T14:25:46.499Z,1013.78
2017-11-19T14:25:46.988Z,1013.80
2017-11-19T14:25:47.479Z,1013.80
2017-11-19T14:25:47.990Z,1013.77
2017-11-19T14:25:48.479Z,1013.79
2017-11-19T14:25:48.995Z,1013.79
2017-11-19T14:25:49.473Z,1013.75
2017-11-19T14:25:49.984Z,1013.78
2017-11-19T14:25:50.467Z,1013.81
2017-11-19T14:26:46.215Z,1013.80
2017-11-19T14:26:46.728Z,1013.78
2017-11-19T14:26:47.207Z,1013.79
2017-11-19T14:26:48.204Z,1013.78
2017-11-19T14:26:48.724Z,1013.78
2017-11-19T14:26:49.249Z,1013.78
2017-11-19T14:28:05.186Z,1013.90
2017-11-19T14:28:05.680Z,1013.89
2017-11-19T14:28:06.149Z,1013.89
2017-11-19T14:28:06.640Z,1013.85
2017-11-19T14:28:07.106Z,1013.88
2017-11-19T14:29:02.065Z,1013.75
2017-11-19T14:29:02.568Z,1013.70
2017-11-19T14:29:03.054Z,1013.73
2017-11-19T14:29:03.558Z,1013.75
2017-11-19T14:29:04.061Z,1013.75
2017-11-19T14:29:04.561Z,1013.74
2017-11-19T14:30:18.337Z,1013.75
2017-11-19T14:30:18.785Z,1013.73
2017-11-19T14:30:19.297Z,1013.73
2017-11-19T14:30:19.791Z,1013.73
2017-11-19T14:30:20.296Z,1013.74
2017-11-19T14:30:20.784Z,1013.73
2017-11-19T14:30:21.295Z,1013.73
2017-11-19T14:30:21.796Z,1013.75
2017-11-19T14:31:16.348Z,1013.74
2017-11-19T14:31:16.851Z,1013.76
2017-11-19T14:31:17.845Z,1013.77
2017-11-19T14:31:18.359Z,1013.76
2017-11-19T14:31:18.817Z,1013.77
2017-11-19T14:31:19.313Z,1013.74
2017-11-19T14:31:19.818Z,1013.77
2017-11-19T14:31:20.321Z,1013.77
2017-11-19T14:32:15.525Z,1013.69
2017-11-19T14:32:16.541Z,1013.69
2017-11-19T14:32:17.040Z,1013.70
2017-11-19T14:32:17.561Z,1013.72
2017-11-19T14:32:18.047Z,1013.70
2017-11-19T14:32:18.554Z,1013.71
2017-11-19T14:32:19.044Z,1013.71
2017-11-19T14:32:19.551Z,1013.71
2017-11-19T14:33:14.602Z,1013.72
2017-11-19T14:33:15.100Z,1013.70
2017-11-19T14:33:15.611Z,1013.71
2017-11-19T14:33:16.055Z,1013.72
2017-11-19T14:33:16.551Z,1013.73
2017-11-19T14:33:17.601Z,1013.70
2017-11-19T14:34:30.882Z,1013.68
2017-11-19T14:34:31.370Z,1013.71
2017-11-19T14:34:31.872Z,1013.70
2017-11-19T14:34:32.396Z,1013.71
2017-11-19T14:34:32.877Z,1013.70
2017-11-19T14:34:33.369Z,1013.69
2017-11-19T14:34:33.879Z,1013.71
2017-11-19T14:34:34.387Z,1013.70
2017-11-19T14:35:47.717Z,1013.69
2017-11-19T14:35:48.184Z,1013.71
2017-11-19T14:35:48.698Z,1013.69
2017-11-19T14:35:50.199Z,1013.70
2017-11-19T14:35:50.694Z,1013.68
2017-11-19T14:35:51.202Z,1013.68
2017-11-19T14:35:51.695Z,1013.74
2017-11-19T14:36:46.217Z,1013.66
2017-11-19T14:36:46.705Z,1013.65
2017-11-19T14:36:47.185Z,1013.66
2017-11-19T14:36:47.668Z,1013.67
2017-11-19T14:36:48.178Z,1013.66
2017-11-19T14:36:48.636Z,1013.65
2017-11-19T14:36:49.767Z,1013.65
2017-11-19T14:36:50.274Z,1013.68
2017-11-19T14:37:44.798Z,1013.71
2017-11-19T14:37:45.291Z,1013.74
2017-11-19T14:37:45.761Z,1013.74
2017-11-19T14:37:46.276Z,1013.73
2017-11-19T14:37:46.758Z,1013.72
2017-11-19T14:37:47.216Z,1013.71
2017-11-19T14:37:47.723Z,1013.72
2017-11-19T14:37:48.236Z,1013.73
2017-11-19T14:39:01.540Z,1013.86
2017-11-19T14:39:02.047Z,1013.87
2017-11-19T14:39:02.516Z,1013.85
2017-11-19T14:39:03.015Z,1013.87
2017-11-19T14:39:03.494Z,1013.84
2017-11-19T14:39:03.982Z,1013.85
2017-11-19T14:39:04.489Z,1013.85
2017-11-19T14:40:17.828Z,1013.94
2017-11-19T14:40:18.331Z,1013.96
2017-11-19T14:40:18.937Z,1014.01
2017-11-19T14:40:19.279Z,1013.98
2017-11-19T14:40:20.278Z,1013.97
2017-11-19T14:40:20.795Z,1013.99
2017-11-19T14:40:21.293Z,1013.99
2017-11-19T14:40:21.752Z,1013.99
2017-11-19T14:41:17.339Z,1013.99
2017-11-19T14:41:17.827Z,1014.01
2017-11-19T14:41:18.314Z,1013.99
2017-11-19T14:41:18.804Z,1014.02
2017-11-19T14:41:19.315Z,1014.01
2017-11-19T14:41:20.358Z,1014.01
2017-11-19T14:42:14.888Z,1013.96
2017-11-19T14:42:15.381Z,1013.97
2017-11-19T14:42:15.863Z,1013.95
2017-11-19T14:42:16.332Z,1013.96
2017-11-19T14:42:16.837Z,1013.97
2017-11-19T14:42:17.291Z,1013.97
2017-11-19T14:42:17.825Z,1013.97
2017-11-19T14:42:18.321Z,1013.93
2017-11-19T14:42:18.832Z,1013.94
2017-11-19T14:43:13.386Z,1013.91
2017-11-19T14:43:13.879Z,1013.88
2017-11-19T14:43:14.369Z,1013.89
2017-11-19T14:43:14.869Z,1013.89
2017-11-19T14:43:15.358Z,1013.91
2017-11-19T14:43:15.873Z,1013.90
2017-11-19T14:43:16.325Z,1013.88
2017-11-19T14:43:16.837Z,1013.88
2017-11-19T14:43:17.330Z,1013.85
2017-11-19T14:44:11.257Z,1013.87
2017-11-19T14:44:11.738Z,1013.88
2017-11-19T14:44:12.231Z,1013.90
2017-11-19T14:44:12.746Z,1013.87
2017-11-19T14:44:13.196Z,1013.88
2017-11-19T14:44:13.708Z,1013.86
2017-11-19T14:44:14.171Z,1013.88
2017-11-19T14:44:14.703Z,1013.88
2017-11-19T14:44:15.193Z,1013.86
2017-11-19T14:45:10.130Z,1013.85
2017-11-19T14:45:11.115Z,1013.83
2017-11-19T14:45:11.615Z,1013.84
2017-11-19T14:45:12.117Z,1013.85
2017-11-19T14:45:13.113Z,1013.81
2017-11-19T14:46:07.647Z,1013.88
2017-11-19T14:46:08.142Z,1013.90
2017-11-19T14:46:09.151Z,1013.92
2017-11-19T14:46:09.661Z,1013.91
2017-11-19T14:46:11.153Z,1013.89
2017-11-19T14:46:11.684Z,1013.85
2017-11-19T14:47:06.200Z,1013.83
2017-11-19T14:47:06.690Z,1013.82
2017-11-19T14:47:07.150Z,1013.82
2017-11-19T14:47:07.639Z,1013.84
2017-11-19T14:47:08.142Z,1013.83
2017-11-19T14:47:08.639Z,1013.83
2017-11-19T14:47:09.165Z,1013.84
2017-11-19T14:47:09.653Z,1013.82
2017-11-19T14:47:10.172Z,1013.85
2017-11-19T14:48:05.084Z,1013.92
2017-11-19T14:48:05.511Z,1013.94
2017-11-19T14:48:05.585Z,1013.95
2017-11-19T14:49:19.878Z,1013.98
2017-11-19T14:49:20.376Z,1014.00
2017-11-19T14:49:20.868Z,1014.01
2017-11-19T14:49:21.341Z,1013.99
2017-11-19T14:49:21.863Z,1014.01
2017-11-19T14:49:22.347Z,1014.02
2017-11-19T14:49:22.833Z,1014.02
2017-11-19T14:50:18.934Z,1013.88
2017-11-19T14:50:19.427Z,1013.91
2017-11-19T14:51:34.387Z,1013.94
2017-11-19T14:51:34.896Z,1013.92
2017-11-19T14:51:35.416Z,1013.92
2017-11-19T14:51:35.894Z,1013.94
2017-11-19T14:51:36.395Z,1013.94
2017-11-19T14:51:36.908Z,1013.92
2017-11-19T14:51:37.405Z,1013.91
2017-11-19T14:52:31.933Z,1013.88
2017-11-19T14:52:32.428Z,1013.87
2017-11-19T14:52:32.888Z,1013.87
2017-11-19T14:52:33.370Z,1013.86
2017-11-19T14:52:33.886Z,1013.87
2017-11-19T14:52:34.379Z,1013.85
2017-11-19T14:52:34.889Z,1013.85
2017-11-19T14:52:35.371Z,1013.90
2017-11-19T14:52:35.899Z,1013.86
2017-11-19T14:53:31.500Z,1013.83
2017-11-19T14:53:31.998Z,1013.84
2017-11-19T14:53:32.533Z,1013.83
2017-11-19T14:53:32.988Z,1013.85
2017-11-19T14:53:33.485Z,1013.84
2017-11-19T14:53:33.991Z,1013.86
2017-11-19T14:54:48.516Z,1013.82
2017-11-19T14:54:48.934Z,1013.82
2017-11-19T14:54:49.960Z,1013.80
2017-11-19T14:54:50.469Z,1013.81
2017-11-19T14:54:51.427Z,1013.82
2017-11-19T14:54:51.889Z,1013.79
2017-11-19T14:54:51.916Z,1013.80
2017-11-19T14:55:47.464Z,1013.86
2017-11-19T14:55:47.956Z,1013.86
2017-11-19T14:55:48.461Z,1013.86
2017-11-19T14:55:48.966Z,1013.88
2017-11-19T14:55:49.470Z,1013.85
2017-11-19T14:55:49.971Z,1013.86
2017-11-19T14:57:03.912Z,1013.84
2017-11-19T14:57:04.906Z,1013.83
2017-11-19T14:57:05.394Z,1013.82
2017-11-19T14:57:05.923Z,1013.82
2017-11-19T14:57:06.442Z,1013.79
2017-11-19T14:57:06.922Z,1013.81
2017-11-19T14:57:07.419Z,1013.80
2017-11-19T14:57:07.924Z,1013.82
2017-11-19T14:58:02.432Z,1013.84
2017-11-19T14:58:02.939Z,1013.84
2017-11-19T14:58:03.442Z,1013.87
2017-11-19T14:58:03.919Z,1013.86
2017-11-19T14:58:04.982Z,1013.86
2017-11-19T14:58:05.495Z,1013.86
2017-11-19T14:58:05.989Z,1013.86
2017-11-19T14:58:06.496Z,1013.87
2017-11-19T14:59:01.024Z,1013.86
2017-11-19T14:59:01.505Z,1013.85
2017-11-19T14:59:02.017Z,1013.85
2017-11-19T14:59:03.045Z,1013.86
2017-11-19T14:59:03.545Z,1013.87
2017-11-19T14:59:04.039Z,1013.85
2017-11-19T14:59:04.537Z,1013.85
2017-11-19T14:59:05.038Z,1013.85
2017-11-19T15:00:00.105Z,1013.95
2017-11-19T15:00:00.605Z,1013.94
2017-11-19T15:01:14.927Z,1013.88
2017-11-19T15:01:15.416Z,1013.89
2017-11-19T15:01:15.927Z,1013.90
2017-11-19T15:01:16.423Z,1013.92
2017-11-19T15:01:16.950Z,1013.88
2017-11-19T15:01:17.425Z,1013.90
2017-11-19T15:01:17.920Z,1013.89
2017-11-19T15:02:12.971Z,1013.94
2017-11-19T15:02:13.473Z,1013.97
2017-11-19T15:02:13.959Z,1013.97
2017-11-19T15:02:14.449Z,1013.99
2017-11-19T15:02:14.969Z,1013.95
2017-11-19T15:02:15.437Z,1013.96
2017-11-19T15:02:15.921Z,1013.96
2017-11-19T15:02:16.434Z,1013.94
2017-11-19T15:03:10.986Z,1013.92
2017-11-19T15:03:11.934Z,1013.90
2017-11-19T15:03:12.418Z,1013.88
2017-11-19T15:03:12.868Z,1013.90
2017-11-19T15:03:13.382Z,1013.91
2017-11-19T15:03:13.419Z,1013.95
2017-11-19T15:03:13.874Z,1013.88
2017-11-19T15:03:14.345Z,1013.90
2017-11-19T15:03:14.831Z,1013.90
2017-11-19T15:04:08.712Z,1013.90
2017-11-19T15:04:09.204Z,1013.91
2017-11-19T15:04:09.698Z,1013.93
2017-11-19T15:04:10.211Z,1013.90
2017-11-19T15:04:10.704Z,1013.91
2017-11-19T15:04:11.211Z,1013.94
2017-11-19T15:04:11.707Z,1013.93
2017-11-19T15:04:12.747Z,1013.92
2017-11-19T15:05:07.408Z,1014.06
2017-11-19T15:05:07.796Z,1014.04
2017-11-19T15:05:08.384Z,1014.01
2017-11-19T15:05:10.376Z,1014.01
2017-11-19T15:05:10.741Z,1014.02
2017-11-19T15:05:11.330Z,1014.01
2017-11-19T15:06:06.133Z,1013.94
2017-11-19T15:06:06.616Z,1013.98
2017-11-19T15:06:07.130Z,1013.97
2017-11-19T15:06:07.611Z,1013.96
2017-11-19T15:06:08.654Z,1013.96
2017-11-19T15:06:09.162Z,1013.97
2017-11-19T15:07:03.685Z,1013.98
2017-11-19T15:07:04.177Z,1013.98
2017-11-19T15:07:04.665Z,1014.01
2017-11-19T15:07:05.178Z,1013.98
2017-11-19T15:07:05.688Z,1013.96
2017-11-19T15:07:06.703Z,1013.96
2017-11-19T15:07:07.212Z,1013.95
2017-11-19T15:07:07.719Z,1013.99
2017-11-19T15:08:03.264Z,1013.89
2017-11-19T15:08:03.762Z,1013.92
2017-11-19T15:08:05.253Z,1013.93
2017-11-19T15:08:05.764Z,1013.89
2017-11-19T15:08:06.262Z,1013.90
2017-11-19T15:09:00.782Z,1013.97
2017-11-19T15:09:01.239Z,1014.00
2017-11-19T15:09:01.739Z,1014.00
2017-11-19T15:09:02.245Z,1013.99
2017-11-19T15:09:02.737Z,1013.99
2017-11-19T15:09:03.246Z,1013.96
2017-11-19T15:09:03.696Z,1013.96
2017-11-19T15:09:04.207Z,1013.94
2017-11-19T15:09:04.717Z,1013.97
2017-11-19T15:09:58.647Z,1013.96
2017-11-19T15:09:59.132Z,1013.95
2017-11-19T15:09:59.644Z,1013.93
2017-11-19T15:10:00.148Z,1013.94
2017-11-19T15:10:00.646Z,1013.94
2017-11-19T15:10:01.164Z,1013.96
2017-11-19T15:10:01.646Z,1013.95
2017-11-19T15:10:02.161Z,1013.94
2017-11-19T15:10:02.661Z,1013.97
2017-11-19T15:10:57.176Z,1013.95
2017-11-19T15:10:57.679Z,1013.95
2017-11-19T15:10:58.164Z,1013.96
2017-11-19T15:10:58.674Z,1013.97
2017-11-19T15:11:00.695Z,1013.98
2017-11-19T15:11:01.194Z,1014.00
2017-11-19T15:11:55.732Z,1013.98
2017-11-19T15:11:56.219Z,1013.96
2017-11-19T15:11:57.228Z,1013.97
2017-11-19T15:11:57.756Z,1013.99
2017-11-19T15:11:58.234Z,1013.96
2017-11-19T15:11:59.242Z,1013.98
2017-11-19T15:11:59.761Z,1014.00
2017-11-19T15:12:54.280Z,1013.90
2017-11-19T15:12:54.778Z,1013.92
2017-11-19T15:12:55.267Z,1013.93
2017-11-19T15:12:55.756Z,1013.93
2017-11-19T15:12:56.818Z,1013.95
2017-11-19T15:12:57.328Z,1013.91
2017-11-19T15:12:57.841Z,1013.95
2017-11-19T15:12:58.330Z,1013.96
2017-11-19T15:13:52.876Z,1013.90
2017-11-19T15:13:53.376Z,1013.96
2017-11-19T15:13:53.891Z,1013.92
2017-11-19T15:13:54.376Z,1013.92
2017-11-19T15:13:54.865Z,1013.94
2017-11-19T15:13:55.385Z,1013.94
2017-11-19T15:13:55.860Z,1013.91
2017-11-19T15:13:56.878Z,1013.94
2017-11-19T15:14:52.935Z,1013.93
2017-11-19T15:14:54.431Z,1013.97
2017-11-19T15:14:54.940Z,1013.96
2017-11-19T15:14:55.443Z,1013.97
2017-11-19T15:15:50.484Z,1013.98
2017-11-19T15:15:50.964Z,1013.99
2017-11-19T15:15:51.476Z,1013.98
2017-11-19T15:15:51.960Z,1014.01
2017-11-19T15:15:52.477Z,1014.02
2017-11-19T15:15:52.990Z,1013.99
2017-11-19T15:17:06.246Z,1013.96
2017-11-19T15:17:07.283Z,1013.98
2017-11-19T15:17:07.792Z,1013.96
2017-11-19T15:17:08.269Z,1013.98
2017-11-19T15:17:08.782Z,1013.96
2017-11-19T15:17:09.296Z,1013.99
2017-11-19T15:17:09.779Z,1013.98
2017-11-19T15:17:10.269Z,1013.95
2017-11-19T15:18:04.807Z,1013.95
2017-11-19T15:18:05.299Z,1013.98
2017-11-19T15:18:05.799Z,1013.97
2017-11-19T15:18:06.303Z,1013.97
2017-11-19T15:18:06.753Z,1013.95
2017-11-19T15:18:07.264Z,1014.01
2017-11-19T15:18:08.306Z,1013.97
2017-11-19T15:18:08.779Z,1013.95
2017-11-19T15:19:04.345Z,1013.89
2017-11-19T15:19:04.836Z,1013.87
2017-11-19T15:19:05.316Z,1013.90
2017-11-19T15:19:05.801Z,1013.92
2017-11-19T15:19:06.302Z,1013.92
2017-11-19T15:19:06.797Z,1013.90
2017-11-19T15:19:07.305Z,1013.92
2017-11-19T15:20:01.842Z,1013.91
2017-11-19T15:20:02.310Z,1013.92
2017-11-19T15:20:02.805Z,1013.93
2017-11-19T15:20:03.315Z,1013.91
2017-11-19T15:20:04.782Z,1013.91
2017-11-19T15:21:18.089Z,1013.90
2017-11-19T15:21:18.575Z,1013.93
2017-11-19T15:21:20.069Z,1013.92
2017-11-19T15:21:20.573Z,1013.89
2017-11-19T15:21:21.064Z,1013.89
2017-11-19T15:22:15.601Z,1013.93
2017-11-19T15:22:16.091Z,1013.93
2017-11-19T15:22:16.574Z,1013.93
2017-11-19T15:22:17.070Z,1013.94
2017-11-19T15:22:17.569Z,1013.94
2017-11-19T15:22:18.056Z,1013.92
2017-11-19T15:22:18.567Z,1013.93
2017-11-19T15:22:19.062Z,1013.92
2017-11-19T15:22:19.561Z,1013.87
2017-11-19T15:23:14.154Z,1013.93
2017-11-19T15:23:14.656Z,1013.91
2017-11-19T15:23:15.157Z,1013.90
2017-11-19T15:23:15.646Z,1013.91
2017-11-19T15:23:16.159Z,1013.92
2017-11-19T15:23:16.654Z,1013.91
2017-11-19T15:23:18.165Z,1013.93
2017-11-19T15:24:14.174Z,1013.90
2017-11-19T15:24:14.640Z,1013.93
2017-11-19T15:24:16.203Z,1013.92
2017-11-19T15:24:16.741Z,1013.93
2017-11-19T15:25:11.266Z,1013.95
2017-11-19T15:25:11.754Z,1013.91
2017-11-19T15:25:12.272Z,1013.96
2017-11-19T15:25:12.744Z,1013.97
2017-11-19T15:25:13.209Z,1013.92
2017-11-19T15:25:13.710Z,1013.90
2017-11-19T15:25:14.164Z,1013.96
2017-11-19T15:26:27.468Z,1013.94
2017-11-19T15:26:27.950Z,1013.95
2017-11-19T15:26:28.452Z,1013.93
2017-11-19T15:26:28.930Z,1013.96
2017-11-19T15:26:29.446Z,1013.95
2017-11-19T15:26:29.945Z,1013.95
2017-11-19T15:26:30.977Z,1013.92
2017-11-19T15:26:31.494Z,1013.97
2017-11-19T15:27:26.013Z,1013.89
2017-11-19T15:27:26.505Z,1013.88
2017-11-19T15:27:27.006Z,1013.91
2017-11-19T15:27:27.470Z,1013.88
2017-11-19T15:27:27.970Z,1013.93
2017-11-19T15:27:28.476Z,1013.89
2017-11-19T15:27:28.981Z,1013.91
2017-11-19T15:27:29.481Z,1013.88
2017-11-19T15:27:29.978Z,1013.88
2017-11-19T15:28:26.069Z,1013.91
2017-11-19T15:28:26.571Z,1013.92
2017-11-19T15:28:27.088Z,1013.90
2017-11-19T15:28:27.575Z,1013.90
2017-11-19T15:28:28.110Z,1013.90
2017-11-19T15:28:28.585Z,1013.90
2017-11-19T15:29:23.137Z,1013.90
2017-11-19T15:29:23.632Z,1013.91
2017-11-19T15:29:24.121Z,1013.89
2017-11-19T15:29:24.632Z,1013.91
2017-11-19T15:29:25.178Z,1013.88
2017-11-19T15:29:25.659Z,1013.88
2017-11-19T15:29:26.152Z,1013.91
2017-11-19T15:29:26.612Z,1013.90
2017-11-19T15:29:27.109Z,1013.90
2017-11-19T15:30:24.195Z,1013.92
2017-11-19T15:30:24.685Z,1013.91
2017-11-19T15:30:25.197Z,1013.93
2017-11-19T15:30:25.678Z,1013.89
2017-11-19T15:31:20.193Z,1013.87
2017-11-19T15:31:20.675Z,1013.89
2017-11-19T15:31:21.165Z,1013.92
2017-11-19T15:31:21.676Z,1013.88
2017-11-19T15:31:22.742Z,1013.91
2017-11-19T15:31:23.257Z,1013.90
2017-11-19T15:31:23.758Z,1013.90
2017-11-19T15:31:24.207Z,1013.90
2017-11-19T15:32:19.746Z,1013.87
2017-11-19T15:32:20.227Z,1013.89
2017-11-19T15:32:20.724Z,1013.87
2017-11-19T15:32:21.764Z,1013.86
2017-11-19T15:32:22.289Z,1013.89
2017-11-19T15:33:17.842Z,1013.89
2017-11-19T15:33:18.337Z,1013.88
2017-11-19T15:33:18.860Z,1013.90
2017-11-19T15:33:19.830Z,1013.84
2017-11-19T15:33:20.333Z,1013.87
2017-11-19T15:33:20.835Z,1013.87
2017-11-19T15:34:34.782Z,1013.90
2017-11-19T15:34:35.275Z,1013.88
2017-11-19T15:34:35.766Z,1013.86
2017-11-19T15:34:36.273Z,1013.87
2017-11-19T15:34:37.298Z,1013.89
2017-11-19T15:34:37.800Z,1013.89
2017-11-19T15:34:38.317Z,1013.90
2017-11-19T15:35:52.289Z,1013.86
2017-11-19T15:35:52.779Z,1013.85
2017-11-19T15:35:53.274Z,1013.84
2017-11-19T15:35:53.739Z,1013.84
2017-11-19T15:35:54.225Z,1013.80
2017-11-19T15:35:54.696Z,1013.80
2017-11-19T15:35:55.183Z,1013.79
2017-11-19T15:35:55.697Z,1013.80
2017-11-19T15:35:56.184Z,1013.81
2017-11-19T15:36:51.586Z,1013.88
2017-11-19T15:36:53.092Z,1013.90
2017-11-19T15:36:53.612Z,1013.89
2017-11-19T15:36:54.100Z,1013.86
2017-11-19T15:37:49.142Z,1013.88
2017-11-19T15:37:49.631Z,1013.83
2017-11-19T15:37:50.123Z,1013.84
2017-11-19T15:37:50.636Z,1013.84
2017-11-19T15:37:51.141Z,1013.84
2017-11-19T15:37:51.635Z,1013.85
2017-11-19T15:37:52.158Z,1013.84
2017-11-19T15:37:52.639Z,1013.83
2017-11-19T15:38:48.169Z,1013.92
2017-11-19T15:38:48.683Z,1013.88
2017-11-19T15:38:49.169Z,1013.87
2017-11-19T15:38:49.663Z,1013.90
2017-11-19T15:38:50.172Z,1013.89
2017-11-19T15:40:03.468Z,1013.92
2017-11-19T15:40:04.478Z,1013.91
2017-11-19T15:40:04.987Z,1013.91
2017-11-19T15:40:05.471Z,1013.93
2017-11-19T15:40:05.988Z,1013.90
2017-11-19T15:40:06.487Z,1013.90
2017-11-19T15:40:06.981Z,1013.95
2017-11-19T15:40:07.483Z,1013.93
2017-11-19T15:41:01.989Z,1013.89
2017-11-19T15:41:02.484Z,1013.91
2017-11-19T15:41:02.975Z,1013.93
2017-11-19T15:41:03.501Z,1013.94
2017-11-19T15:41:03.975Z,1013.94
2017-11-19T15:41:04.467Z,1013.92
2017-11-19T15:41:04.979Z,1013.91
2017-11-19T15:41:05.485Z,1013.91
2017-11-19T15:41:05.977Z,1013.90
2017-11-19T15:42:03.072Z,1013.93
2017-11-19T15:42:03.592Z,1013.91
2017-11-19T15:43:16.868Z,1013.95
2017-11-19T15:43:17.360Z,1013.95
2017-11-19T15:43:17.860Z,1013.94
2017-11-19T15:43:18.359Z,1013.93
2017-11-19T15:43:18.858Z,1013.95
2017-11-19T15:43:20.897Z,1013.89
2017-11-19T15:44:17.961Z,1013.93
2017-11-19T15:44:18.455Z,1013.93
2017-11-19T15:44:18.949Z,1013.92
2017-11-19T15:44:19.438Z,1013.89
2017-11-19T15:45:15.497Z,1013.95
2017-11-19T15:45:15.986Z,1013.96
2017-11-19T15:45:16.501Z,1013.96
2017-11-19T15:45:16.994Z,1013.95
2017-11-19T15:45:17.507Z,1013.93
2017-11-19T15:45:18.002Z,1013.93
2017-11-19T15:46:14.051Z,1013.90
2017-11-19T15:46:14.555Z,1013.92
2017-11-19T15:46:15.045Z,1013.93
2017-11-19T15:47:29.506Z,1013.96
2017-11-19T15:47:29.996Z,1013.95
2017-11-19T15:47:30.508Z,1013.95
2017-11-19T15:47:31.518Z,1013.94
2017-11-19T15:47:32.045Z,1013.96
2017-11-19T15:47:32.537Z,1013.95
2017-11-19T15:47:33.044Z,1013.94
2017-11-19T15:48:27.570Z,1013.99
2017-11-19T15:48:28.065Z,1013.98
2017-11-19T15:48:28.552Z,1013.98
2017-11-19T15:48:29.070Z,1014.00
2017-11-19T15:48:29.560Z,1013.97
2017-11-19T15:48:30.073Z,1013.98
2017-11-19T15:48:30.571Z,1013.95
2017-11-19T15:48:31.605Z,1013.98
2017-11-19T15:49:27.155Z,1013.88
2017-11-19T15:49:27.651Z,1013.90
2017-11-19T15:49:28.648Z,1013.90
2017-11-19T15:49:29.180Z,1013.87
2017-11-19T15:49:29.668Z,1013.90
2017-11-19T15:49:30.188Z,1013.89
2017-11-19T15:50:25.239Z,1013.91
2017-11-19T15:50:25.749Z,1013.94
2017-11-19T15:50:26.193Z,1013.94
2017-11-19T15:50:26.680Z,1013.91
2017-11-19T15:50:27.175Z,1013.90
2017-11-19T15:50:27.677Z,1013.92
2017-11-19T15:50:28.179Z,1013.94
2017-11-19T15:50:28.684Z,1013.95
2017-11-19T15:51:24.790Z,1013.95
2017-11-19T15:51:26.263Z,1013.95
2017-11-19T15:51:26.759Z,1013.97
2017-11-19T15:51:27.268Z,1013.96
2017-11-19T15:52:22.347Z,1013.95
2017-11-19T15:52:22.845Z,1013.93
2017-11-19T15:53:36.634Z,1013.97
2017-11-19T15:53:37.130Z,1013.94
2017-11-19T15:53:37.596Z,1013.96
2017-11-19T15:53:38.088Z,1013.97
2017-11-19T15:53:38.600Z,1013.95
2017-11-19T15:53:39.108Z,1013.97
2017-11-19T15:53:39.596Z,1013.98
2017-11-19T15:53:40.109Z,1013.93
2017-11-19T15:54:36.167Z,1014.00
2017-11-19T15:54:36.665Z,1013.98
2017-11-19T15:54:37.158Z,1013.99
2017-11-19T15:54:37.659Z,1014.01
2017-11-19T15:55:52.139Z,1013.93
2017-11-19T15:55:52.650Z,1013.95